Friday, November 28, 2014, 1:42 AM EST

KPTB, Petersburg, Dinwiddie County Airport

Location: Petersburg, VA, United States Lat: 37.183
Local Time: 1:42 AM EST ( 6:42 GMT) Lon: -77.517
Time Zone: US/Eastern Elev: 193 ft

Show me the last for .
Show Decoded

2014-11-28 01:15 METAR KPTB 280615Z AUTO 28005KT 10SM CLR 01/M03 A3021 RMK AO2 T00111033 =
2014-11-28 00:55 METAR KPTB 280555Z AUTO 29005KT 10SM CLR 01/M03 A3021 RMK AO2 60001 T00111030
                 10056 20011 =
2014-11-28 00:35 METAR KPTB 280535Z AUTO 29005KT 10SM CLR 01/M03 A3021 RMK AO2 T00141026 =
2014-11-28 00:15 METAR KPTB 280515Z AUTO 29004KT 10SM CLR 02/M02 A3021 RMK AO2 T00151021 =
2014-11-27 23:55 METAR KPTB 280455Z AUTO 28004KT 10SM CLR 02/M02 A3022 RMK AO2 T00171016
                 400960011 =
2014-11-27 23:35 METAR KPTB 280435Z AUTO 27004KT 10SM CLR 02/M01 A3021 RMK AO2 T00201010 =
2014-11-27 23:15 METAR KPTB 280415Z AUTO 27005KT 10SM CLR 02/00 A3021 RMK AO2 T00181001 =
2014-11-27 22:55 METAR KPTB 280355Z AUTO 27004KT 10SM SCT070 02/M01 A3021 RMK AO2 T00201009 =
2014-11-27 22:35 METAR KPTB 280335Z AUTO 27004KT 10SM SCT070 04/M02 A3021 RMK AO2 T00351022 =
2014-11-27 22:15 METAR KPTB 280315Z AUTO 28005KT 10SM SCT060 OVC070 04/M02 A3021 RMK AO2
                 T00391022 =
2014-11-27 21:55 METAR KPTB 280255Z AUTO 28005KT 10SM BKN060 BKN070 04/M03 A3021 RMK AO2 60001
                 T00441026 =
2014-11-27 21:35 METAR KPTB 280235Z AUTO 29005KT 10SM SCT060 BKN070 05/M02 A3020 RMK AO2
                 T00481021 =
2014-11-27 21:15 METAR KPTB 280215Z AUTO 30007KT 10SM OVC070 05/00 A3019 RMK AO2 T00520000 =
2014-11-27 20:55 METAR KPTB 280155Z AUTO 29005KT 10SM OVC060 06/01 A3018 RMK AO2 T00550006 =
2014-11-27 20:35 METAR KPTB 280135Z AUTO 31006KT 10SM OVC060 06/03 A3018 RMK AO2 T00550025 =
2014-11-27 20:15 METAR KPTB 280115Z AUTO 29005KT 10SM OVC060 06/03 A3018 RMK AO2 T00550028 =
2014-11-27 19:55 METAR KPTB 280055Z AUTO 26003KT 10SM OVC050 05/03 A3017 RMK AO2 P0001 T00450032
                 =
2014-11-27 19:35 METAR KPTB 280035Z AUTO 25004KT 10SM OVC055 05/03 A3016 RMK AO2 P0001 T00460032
                 =
2014-11-27 19:15 METAR KPTB 280015Z AUTO 26003KT 10SM SCT034 OVC065 04/03 A3015 RMK AO2 T00370033
                 =
2014-11-27 18:55 METAR KPTB 272355Z AUTO 27004KT 7SM SCT048 SCT050 BKN065 03/02 A3014 RMK AO2
                 T00260022 10096 20026 =
2014-11-27 17:55 METAR KPTB 272255Z AUTO 00000KT 10SM OVC055 06/03 A3012 RMK AO2 T00590028 =
2014-11-27 17:35 METAR KPTB 272235Z AUTO 29003KT 10SM OVC055 06/03 A3012 RMK AO2 T00580026 =
2014-11-27 17:15 METAR KPTB 272215Z AUTO 34004KT 10SM -DZ SCT038 SCT044 OVC055 06/03 A3011 RMK
                 AO2 T00610025 =
2014-11-27 16:55 METAR KPTB 272155Z AUTO 34006KT 10SM SCT022 BKN038 OVC050 07/02 A3010 RMK AO2
                 T00660024 =
2014-11-27 16:35 METAR KPTB 272135Z AUTO 35010KT 10SM SCT024 BKN031 BKN041 08/04 A3009 RMK AO2
                 T00750042 =
2014-11-27 16:15 METAR KPTB 272115Z AUTO 35003KT 10SM BKN085 07/05 A3007 RMK AO2 T00740048 =
2014-11-27 15:55 METAR KPTB 272055Z AUTO 35003KT 10SM BKN022 SCT055 OVC085 07/05 A3007 RMK AO2
                 T00720047 =
2014-11-27 15:35 METAR KPTB 272035Z AUTO 01003KT 10SM BKN022 BKN037 OVC047 07/05 A3006 RMK AO2
                 T00710047 =
2014-11-27 15:15 METAR KPTB 272015Z AUTO 35004KT 7SM +RA SCT022 BKN033 BKN045 08/03 A3006 RMK AO2
                 T00750030 =
2014-11-27 14:55 METAR KPTB 271955Z AUTO 28008KT 10SM SCT070 BKN085 09/03 A3004 RMK AO2 T00870031
                 =
2014-11-27 14:35 METAR KPTB 271935Z AUTO 28007KT 10SM SCT029 BKN070 OVC085 09/03 A3003 RMK AO2
                 T00880030 =
2014-11-27 14:15 METAR KPTB 271915Z AUTO 29008KT 10SM SCT022 BKN028 OVC075 09/04 A3003 RMK AO2
                 T00940037 =
2014-11-27 13:55 METAR KPTB 271855Z AUTO 29003KT 10SM SCT019 BKN024 BKN029 09/05 A3003 RMK AO2
                 T00890048 =
2014-11-27 13:35 METAR KPTB 271835Z AUTO 30006KT 10SM SCT014 BKN020 OVC025 08/05 A3003 RMK AO2
                 T00810047 =
2014-11-27 13:15 METAR KPTB 271815Z AUTO 31005KT 10SM BKN014 BKN022 OVC100 08/06 A3003 RMK AO2
                 T00820057 =
2014-11-27 12:55 METAR KPTB 271755Z AUTO 32004KT 10SM -RA SCT012 BKN020 OVC047 08/06 A3003 RMK
                 AO2 60007 T00790059 10079 20041 =
2014-11-27 12:35 METAR KPTB 271735Z AUTO 31003KT 10SM SCT011 BKN020 OVC070 08/06 A3004 RMK AO2
                 T00760057 =
2014-11-27 12:15 METAR KPTB 271715Z AUTO 32006KT 10SM SCT010 BKN013 OVC080 07/06 A3004 RMK AO2
                 T00730057 =
2014-11-27 11:55 METAR KPTB 271655Z AUTO 00000KT 10SM SCT008 BKN014 OVC080 07/06 A3004 RMK AO2
                 T00710055 =
2014-11-27 11:35 METAR KPTB 271635Z AUTO 00000KT 10SM SCT006 BKN013 OVC050 07/06 A3005 RMK AO2
                 T00700056 =
2014-11-27 11:15 METAR KPTB 271615Z AUTO 00000KT 10SM -DZ BKN050 OVC055 07/06 A3005 RMK AO2
                 T00680059 =
2014-11-27 10:55 METAR KPTB 271555Z AUTO 17003KT 10SM -RA OVC049 07/06 A3005 RMK AO2 P0002
                 T00660058 =
2014-11-27 10:35 METAR KPTB 271535Z AUTO 20003KT 10SM -RA OVC046 06/06 A3005 RMK AO2 P0001
                 T00640056 =
2014-11-27 10:15 METAR KPTB 271515Z AUTO 23004KT 7SM -RA SCT004 BKN039 OVC045 06/06 A3006 RMK AO2
                 P0001 T00610056 =
2014-11-27 09:55 METAR KPTB 271455Z AUTO 22003KT 7SM -RA BKN004 OVC009 06/06 A3006 RMK AO2 P0004
                 60005 T00600056 =
2014-11-27 09:35 METAR KPTB 271435Z AUTO 21003KT 7SM -RA OVC004 06/05 A3006 RMK AO2 P0003
                 T00560053 =
2014-11-27 09:15 METAR KPTB 271415Z AUTO 21003KT 5SM -RA OVC004 05/05 A3006 RMK AO2 P0002
                 T00520050 =
2014-11-27 08:55 METAR KPTB 271355Z AUTO 00000KT 7SM -RA OVC002 05/05 A3006 RMK AO2 P0001
                 T00500047 =
2014-11-27 08:35 METAR KPTB 271335Z AUTO 19003KT 4SM -RA OVC002 05/05 A3006 RMK AO2 T00470045 =
2014-11-27 08:15 METAR KPTB 271315Z AUTO 00000KT 5SM -RA BKN002 BKN012 OVC042 05/05 A3005 RMK AO2
                 T00460045 =
2014-11-27 07:55 METAR KPTB 271255Z AUTO 00000KT 7SM -RA SCT002 SCT011 OVC070 04/04 A3004 RMK AO2
                 T00440041 =
2014-11-27 07:15 METAR KPTB 271215Z AUTO 15003KT 7SM -RA SCT002 BKN044 OVC070 04/04 A3004 RMK AO2
                 T00410040 =
2014-11-27 06:55 METAR KPTB 271155Z AUTO 15003KT 7SM -RA SCT024 BKN032 OVC045 04/04 A3004 RMK AO2
                 60001 70069 T00410040 10045 20024 =
2014-11-27 06:35 METAR KPTB 271135Z AUTO 00000KT 7SM SCT004 BKN032 OVC070 04/04 A3004 RMK AO2
                 T00410040 =
2014-11-27 06:15 METAR KPTB 271115Z AUTO 00000KT 7SM SCT006 BKN070 OVC090 04/04 A3003 RMK AO2
                 T00410038 =
2014-11-27 05:55 METAR KPTB 271055Z AUTO 00000KT 7SM UP SCT037 BKN090 OVC110 04/04 A3002 RMK AO2
                 T00420039 =
2014-11-27 05:35 METAR KPTB 271035Z AUTO 00000KT 10SM SCT005 BKN033 OVC060 04/04 A3003 RMK AO2
                 T00430040 =
2014-11-27 05:15 METAR KPTB 271015Z AUTO 00000KT 10SM -SN BKN005 BKN033 OVC070 04/04 A3003 RMK
                 AO2 T00430040 =
2014-11-27 04:55 METAR KPTB 270955Z AUTO 00000KT 10SM BKN005 BKN030 OVC075 05/04 A3004 RMK AO2
                 P0001 T00450041 =
2014-11-27 04:35 METAR KPTB 270935Z AUTO 00000KT 10SM SCT005 BKN075 OVC085 04/04 A3004 RMK AO2
                 T00430041 =
2014-11-27 04:15 METAR KPTB 270915Z AUTO 19004KT 10SM -RA SCT050 BKN075 OVC085 04/04 A3003 RMK
                 AO2 T00410040 =
2014-11-27 03:55 METAR KPTB 270855Z AUTO 00000KT 10SM -RA BKN050 OVC070 04/04 A3004 RMK AO2
                 T00410040 =
2014-11-27 03:15 METAR KPTB 270815Z AUTO 22003KT 10SM BKN004 BKN055 OVC110 04/04 A3006 RMK AO2
                 T00400037 =
2014-11-27 02:35 METAR KPTB 270735Z AUTO 21003KT 3SM BR OVC002 04/03 A3006 RMK AO2 T00350033 =
2014-11-27 02:15 METAR KPTB 270715Z AUTO 22003KT 3SM BR OVC002 03/03 A3006 RMK AO2 T00330031 =
2014-11-27 01:55 METAR KPTB 270655Z AUTO 20003KT 7SM SCT002 03/02 A3005 RMK AO2 T00250023 =

Support USWX by starting your Amazon purchase here.